createdAt,value
2023-02-01T00:00:58.232Z,3.30
2023-02-01T00:03:27.407Z,2.67
2023-02-01T00:06:01.286Z,2.50
2023-02-01T00:08:29.621Z,3.28
2023-02-01T00:11:02.097Z,2.80
2023-02-01T00:13:33.385Z,3.58
2023-02-01T00:16:06.067Z,3.70
2023-02-01T00:18:34.369Z,3.15
2023-02-01T00:21:03.095Z,3.30
2023-02-01T00:23:35.018Z,3.40
2023-02-01T00:26:03.545Z,4.65
2023-02-01T00:28:33.533Z,3.83
2023-02-01T00:31:03.319Z,3.55
2023-02-01T00:33:32.173Z,2.85
2023-02-01T00:36:00.499Z,3.40
2023-02-01T00:38:29.092Z,4.43
2023-02-01T00:41:05.075Z,4.28
2023-02-01T00:43:35.102Z,3.38
2023-02-01T00:46:03.829Z,3.45
2023-02-01T00:48:32.177Z,4.15
2023-02-01T00:51:01.539Z,2.80
2023-02-01T00:53:29.972Z,3.72
2023-02-01T00:55:58.352Z,3.80
2023-02-01T00:58:27.514Z,3.30
2023-02-01T01:01:05.689Z,3.13
2023-02-01T01:03:36.110Z,3.70
2023-02-01T01:06:07.844Z,3.65
2023-02-01T01:08:37.769Z,3.70
2023-02-01T01:11:07.419Z,3.92
2023-02-01T01:13:35.664Z,3.55
2023-02-01T01:16:08.052Z,3.53
2023-02-01T01:18:36.928Z,3.97
2023-02-01T01:21:07.165Z,3.65
2023-02-01T01:23:35.801Z,3.63
2023-02-01T01:26:08.188Z,3.95
2023-02-01T01:28:36.519Z,2.60
2023-02-01T01:31:06.260Z,3.40
2023-02-01T01:33:34.582Z,3.22
2023-02-01T01:36:02.815Z,3.55
2023-02-01T01:38:30.917Z,3.40
2023-02-01T01:41:00.623Z,2.70
2023-02-01T01:43:51.815Z,3.00
2023-02-01T01:46:24.545Z,4.88
2023-02-01T01:48:58.402Z,3.08
2023-02-01T01:51:28.374Z,2.47
2023-02-01T01:54:03.468Z,2.67
2023-02-01T01:56:34.491Z,2.67
2023-02-01T01:59:05.133Z,3.78
2023-02-01T02:01:34.752Z,2.20
2023-02-01T02:04:03.597Z,2.30
2023-02-01T02:06:40.996Z,2.70
2023-02-01T02:09:10.055Z,4.30
2023-02-01T02:11:38.068Z,2.42
2023-02-01T02:14:09.801Z,3.80
2023-02-01T02:16:50.523Z,2.60
2023-02-01T02:19:50.554Z,2.88
2023-02-01T02:22:43.585Z,2.10
2023-02-01T02:25:53.261Z,2.42
2023-02-01T02:28:49.140Z,3.00
2023-02-01T02:31:49.112Z,3.38
2023-02-01T02:34:23.851Z,2.92
2023-02-01T02:37:00.938Z,2.40
2023-02-01T02:39:40.113Z,2.35
2023-02-01T02:42:33.480Z,2.90
2023-02-01T02:45:25.513Z,2.47
2023-02-01T02:47:59.086Z,2.70
2023-02-01T02:50:49.302Z,2.35
2023-02-01T02:53:39.593Z,2.65
2023-02-01T02:56:27.217Z,2.63
2023-02-01T02:59:13.960Z,2.67
2023-02-01T03:02:00.340Z,2.40
2023-02-01T03:04:28.782Z,3.22
2023-02-01T03:07:14.808Z,3.10
2023-02-01T03:09:47.108Z,2.10
2023-02-01T03:12:35.148Z,2.53
2023-02-01T03:15:14.189Z,2.42
2023-02-01T03:17:47.537Z,2.50
2023-02-01T03:20:21.086Z,2.15
2023-02-01T03:22:53.400Z,1.92
2023-02-01T03:25:26.011Z,3.00
2023-02-01T03:27:58.954Z,1.92
2023-02-01T03:30:31.138Z,2.40
2023-02-01T03:33:02.344Z,3.00
2023-02-01T03:35:39.773Z,3.30
2023-02-01T03:38:20.317Z,2.40
2023-02-01T03:40:53.952Z,1.90
2023-02-01T03:43:24.711Z,3.90
2023-02-01T03:45:56.739Z,2.65
2023-02-01T03:48:26.284Z,2.50
2023-02-01T03:50:58.633Z,2.65
2023-02-01T03:53:30.168Z,2.45
2023-02-01T03:55:59.793Z,2.20
2023-02-01T03:58:28.077Z,3.50
2023-02-01T04:00:58.889Z,2.90
2023-02-01T04:03:28.987Z,2.83
2023-02-01T04:05:58.616Z,3.50
2023-02-01T04:08:30.886Z,1.95
2023-02-01T04:10:58.895Z,3.40
2023-02-01T04:13:27.146Z,3.00
2023-02-01T04:15:55.570Z,3.30
2023-02-01T04:18:23.633Z,3.00
2023-02-01T04:20:51.707Z,3.03
2023-02-01T04:23:19.919Z,2.95
2023-02-01T04:25:49.480Z,4.28
2023-02-01T04:28:17.545Z,2.60
2023-02-01T04:30:47.447Z,2.75
2023-02-01T04:33:15.630Z,2.95
2023-02-01T04:35:43.839Z,3.03
2023-02-01T04:38:11.913Z,4.43
2023-02-01T04:40:40.451Z,3.22
2023-02-01T04:43:10.237Z,2.78
2023-02-01T04:45:38.542Z,2.22
2023-02-01T04:48:07.007Z,2.30
2023-02-01T04:50:35.300Z,2.88
2023-02-01T04:53:03.806Z,2.25
2023-02-01T04:55:31.884Z,3.28
2023-02-01T04:58:00.158Z,3.15
2023-02-01T05:00:30.004Z,2.40
2023-02-01T05:02:58.117Z,4.35
2023-02-01T05:05:26.465Z,2.72
2023-02-01T05:07:54.581Z,3.08
2023-02-01T05:10:23.505Z,3.33
2023-02-01T05:13:09.454Z,2.60
2023-02-01T05:15:39.074Z,3.22
2023-02-01T05:18:07.467Z,2.75
2023-02-01T05:20:35.509Z,3.88
2023-02-01T05:23:03.502Z,3.15
2023-02-01T05:25:31.611Z,2.25
2023-02-01T05:28:00.473Z,3.55
2023-02-01T05:30:28.820Z,2.60
2023-02-01T05:32:58.361Z,3.00
2023-02-01T05:35:26.348Z,3.40
2023-02-01T05:37:54.394Z,2.50
2023-02-01T05:40:22.810Z,3.78
2023-02-01T05:42:50.993Z,2.97
2023-02-01T05:45:19.664Z,2.85
2023-02-01T05:47:47.762Z,2.75
2023-02-01T05:50:18.674Z,2.58
2023-02-01T05:52:47.132Z,3.10
2023-02-01T05:55:15.211Z,4.13
2023-02-01T05:57:43.442Z,2.85
2023-02-01T06:00:12.954Z,2.67
2023-02-01T06:02:41.878Z,2.28
2023-02-01T06:05:10.688Z,3.45
2023-02-01T06:07:40.381Z,2.80
2023-02-01T06:10:09.558Z,3.60
2023-02-01T06:12:37.936Z,3.35
2023-02-01T06:15:06.901Z,2.30
2023-02-01T06:17:34.893Z,3.15
2023-02-01T06:20:03.188Z,3.25
2023-02-01T06:22:31.553Z,2.38
2023-02-01T06:25:01.183Z,2.83
2023-02-01T06:27:29.629Z,2.53
2023-02-01T06:29:57.846Z,2.95
2023-02-01T06:32:27.110Z,3.17
2023-02-01T06:34:56.905Z,2.50
2023-02-01T06:37:25.933Z,3.38
2023-02-01T06:39:54.000Z,3.95
2023-02-01T06:42:24.059Z,3.85
2023-02-01T06:44:52.450Z,3.13
2023-02-01T06:47:20.944Z,3.47
2023-02-01T06:49:49.263Z,3.25
2023-02-01T06:52:17.800Z,3.30
2023-02-01T06:54:45.769Z,3.85
2023-02-01T06:57:14.017Z,3.97
2023-02-01T06:59:44.032Z,4.07
2023-02-01T07:02:13.512Z,3.72
2023-02-01T07:04:42.173Z,4.38
2023-02-01T07:07:14.029Z,3.47
2023-02-01T07:09:42.269Z,4.13
2023-02-01T07:12:10.571Z,4.95
2023-02-01T07:14:38.649Z,3.88
2023-02-01T07:17:08.419Z,6.15
2023-02-01T07:19:36.522Z,6.95
2023-02-01T07:22:04.657Z,4.50
2023-02-01T07:24:32.801Z,4.18
2023-02-01T07:27:01.029Z,4.60
2023-02-01T07:29:29.250Z,4.65
2023-02-01T07:31:57.555Z,5.18
2023-02-01T07:34:27.195Z,4.40
2023-02-01T07:36:55.656Z,4.72
2023-02-01T07:39:23.878Z,3.90
2023-02-01T07:41:52.425Z,3.85
2023-02-01T07:44:23.744Z,3.75
2023-02-01T07:46:52.162Z,4.45
2023-02-01T07:49:20.181Z,4.40
2023-02-01T07:51:49.838Z,4.95
2023-02-01T07:54:18.101Z,5.75
2023-02-01T07:56:46.545Z,5.72
2023-02-01T07:59:16.166Z,3.92
2023-02-01T08:01:44.494Z,5.97
2023-02-01T08:07:40.839Z,3.97
2023-02-01T08:10:12.578Z,5.68
2023-02-01T08:12:41.885Z,5.32
2023-02-01T08:15:10.724Z,5.30
2023-02-01T08:17:38.812Z,5.47
2023-02-01T08:20:08.036Z,5.45
2023-02-01T08:22:36.379Z,5.18
2023-02-01T08:25:07.347Z,3.72
2023-02-01T08:27:36.538Z,4.30
2023-02-01T08:30:06.059Z,4.97
2023-02-01T08:32:35.688Z,3.50
2023-02-01T08:35:04.533Z,3.85
2023-02-01T08:37:33.722Z,3.95
2023-02-01T08:40:02.052Z,3.75
2023-02-01T08:42:57.962Z,5.32
2023-02-01T08:45:29.803Z,4.30
2023-02-01T08:47:59.178Z,4.53
2023-02-01T08:50:29.058Z,4.40
2023-02-01T08:52:57.251Z,4.82
2023-02-01T08:55:25.303Z,4.00
2023-02-01T08:57:55.369Z,4.82
2023-02-01T09:00:24.440Z,3.80
2023-02-01T09:02:53.191Z,4.30
2023-02-01T09:05:23.452Z,5.45
2023-02-01T09:07:51.617Z,4.43
2023-02-01T09:10:33.478Z,4.90
2023-02-01T09:13:05.176Z,5.53
2023-02-01T09:15:33.716Z,3.95
2023-02-01T09:18:02.150Z,5.63
2023-02-01T09:20:30.733Z,3.95
2023-02-01T09:23:01.457Z,4.50
2023-02-01T09:25:29.934Z,3.80
2023-02-01T09:27:58.337Z,4.57
2023-02-01T09:30:30.387Z,4.80
2023-02-01T09:32:59.620Z,5.00
2023-02-01T09:35:28.277Z,5.45
2023-02-01T09:37:57.347Z,4.78
2023-02-01T09:40:26.209Z,5.38
2023-02-01T09:43:23.775Z,5.85
2023-02-01T09:46:02.183Z,5.90
2023-02-01T09:48:36.493Z,6.07
2023-02-01T09:51:09.021Z,7.65
2023-02-01T09:53:43.440Z,6.75
2023-02-01T09:56:16.571Z,5.50
2023-02-01T09:58:50.465Z,5.85
2023-02-01T10:01:24.707Z,5.05
2023-02-01T10:03:58.566Z,4.53
2023-02-01T10:06:39.410Z,4.35
2023-02-01T10:09:18.876Z,4.10
2023-02-01T10:12:04.766Z,4.40
2023-02-01T10:14:54.624Z,4.05
2023-02-01T10:17:39.024Z,4.90
2023-02-01T10:20:19.602Z,4.50
2023-02-01T10:23:19.084Z,4.30
2023-02-01T10:25:52.239Z,4.40
2023-02-01T10:28:22.635Z,3.25
2023-02-01T10:30:51.760Z,3.67
2023-02-01T10:33:27.140Z,3.65
2023-02-01T10:36:01.421Z,2.85
2023-02-01T10:38:32.361Z,2.70
2023-02-01T10:41:05.198Z,4.57
2023-02-01T10:43:35.256Z,4.07
2023-02-01T10:46:04.037Z,3.10
2023-02-01T10:48:34.965Z,2.30
2023-02-01T10:51:08.169Z,2.17
2023-02-01T10:53:44.376Z,2.38
2023-02-01T10:56:15.242Z,2.13
2023-02-01T10:58:48.101Z,2.65
2023-02-01T11:01:22.183Z,3.60
2023-02-01T11:03:57.697Z,3.20
2023-02-01T11:06:30.854Z,2.95
2023-02-01T11:09:02.590Z,2.90
2023-02-01T11:11:31.715Z,2.50
2023-02-01T11:14:02.520Z,2.78
2023-02-01T11:16:40.213Z,2.80
2023-02-01T11:19:16.685Z,3.35
2023-02-01T11:21:46.249Z,3.13
2023-02-01T11:24:24.998Z,4.03
2023-02-01T11:26:54.517Z,3.05
2023-02-01T11:29:30.881Z,4.13
2023-02-01T11:32:01.264Z,4.30
2023-02-01T11:34:36.387Z,3.85
2023-02-01T11:37:05.653Z,3.58
2023-02-01T11:39:36.671Z,3.95
2023-02-01T11:42:14.353Z,4.30
2023-02-01T11:44:44.773Z,4.32
2023-02-01T11:47:28.226Z,5.25
2023-02-01T11:50:00.025Z,3.95
2023-02-01T11:52:50.934Z,5.43
2023-02-01T11:55:38.008Z,5.38
2023-02-01T11:58:22.330Z,4.47
2023-02-01T12:01:13.897Z,5.85
2023-02-01T12:04:15.500Z,4.20
2023-02-01T12:06:51.806Z,3.30
2023-02-01T12:09:36.828Z,3.75
2023-02-01T12:12:14.535Z,3.25
2023-02-01T12:14:59.088Z,3.50
2023-02-01T12:17:45.214Z,4.70
2023-02-01T12:20:27.272Z,4.10
2023-02-01T12:23:09.231Z,3.45
2023-02-01T12:25:48.879Z,4.80
2023-02-01T12:29:06.168Z,3.03
2023-02-01T12:31:48.341Z,4.10
2023-02-01T12:34:37.684Z,2.83
2023-02-01T12:37:18.039Z,4.18
2023-02-01T12:39:54.753Z,4.22
2023-02-01T12:42:27.580Z,4.80
2023-02-01T12:45:02.353Z,5.10
2023-02-01T12:47:37.733Z,4.35
2023-02-01T12:50:15.658Z,3.90
2023-02-01T12:52:48.617Z,4.43
2023-02-01T12:55:25.276Z,4.45
2023-02-01T12:57:57.722Z,4.65
2023-02-01T13:00:33.789Z,4.05
2023-02-01T13:03:07.931Z,4.30
2023-02-01T13:05:46.886Z,3.17
2023-02-01T13:08:19.077Z,3.95
2023-02-01T13:10:55.046Z,4.70
2023-02-01T13:13:31.024Z,4.18
2023-02-01T13:16:05.255Z,3.65
2023-02-01T13:18:39.131Z,3.47
2023-02-01T13:21:13.167Z,2.70
2023-02-01T13:23:46.023Z,2.97
2023-02-01T13:26:16.189Z,3.42
2023-02-01T13:28:49.531Z,4.18
2023-02-01T13:31:40.719Z,4.47
2023-02-01T13:34:39.151Z,4.20
2023-02-01T13:37:23.412Z,5.60
2023-02-01T13:40:08.366Z,4.60
2023-02-01T13:42:49.441Z,5.05
2023-02-01T13:45:22.131Z,5.53
2023-02-01T13:47:54.466Z,5.22
2023-02-01T13:50:27.004Z,5.32
2023-02-01T13:52:58.902Z,6.38
2023-02-01T13:55:31.900Z,4.55
2023-02-01T13:58:20.097Z,5.15
2023-02-01T14:00:49.843Z,5.15
2023-02-01T14:03:20.816Z,5.43
2023-02-01T14:06:02.877Z,4.80
2023-02-01T14:08:44.091Z,5.00
2023-02-01T14:11:36.183Z,5.18
2023-02-01T14:14:47.399Z,5.00
2023-02-01T14:17:38.912Z,3.65
2023-02-01T14:20:46.865Z,4.32
2023-02-01T14:23:20.114Z,5.65
2023-02-01T14:26:00.110Z,3.38
2023-02-01T14:28:32.246Z,4.55
2023-02-01T14:31:01.745Z,4.20
2023-02-01T14:33:31.852Z,5.25
2023-02-01T14:36:09.191Z,2.92
2023-02-01T14:38:39.751Z,4.10
2023-02-01T14:41:26.254Z,5.05
2023-02-01T14:44:24.802Z,4.22
2023-02-01T14:47:32.181Z,3.72
2023-02-01T14:50:29.454Z,3.15
2023-02-01T14:53:14.067Z,2.90
2023-02-01T14:55:45.038Z,3.95
2023-02-01T14:58:33.241Z,2.85
2023-02-01T15:01:04.114Z,4.22
2023-02-01T15:03:50.223Z,4.68
2023-02-01T15:06:32.349Z,5.07
2023-02-01T15:09:04.410Z,3.95
2023-02-01T15:11:33.050Z,4.03
2023-02-01T15:14:02.338Z,3.85
2023-02-01T15:16:30.796Z,3.90
2023-02-01T15:19:17.108Z,3.53
2023-02-01T15:21:49.781Z,5.05
2023-02-01T15:24:23.894Z,4.18
2023-02-01T15:26:52.687Z,2.88
2023-02-01T15:29:22.413Z,4.45
2023-02-01T15:31:53.447Z,3.88
2023-02-01T15:34:22.816Z,3.95
2023-02-01T15:37:07.861Z,3.58
2023-02-01T15:39:38.404Z,3.97
2023-02-01T15:42:16.707Z,3.33
2023-02-01T15:44:47.886Z,4.22
2023-02-01T15:47:19.633Z,4.28
2023-02-01T15:49:52.831Z,3.60
2023-02-01T15:52:37.397Z,4.68
2023-02-01T15:55:08.664Z,3.83
2023-02-01T15:57:40.795Z,3.30
2023-02-01T16:00:21.671Z,4.30
2023-02-01T16:02:55.022Z,4.05
2023-02-01T16:05:33.368Z,4.32
2023-02-01T16:08:13.100Z,3.90
2023-02-01T16:10:44.466Z,3.45
2023-02-01T16:13:13.476Z,3.53
2023-02-01T16:15:43.568Z,4.68
2023-02-01T16:18:14.388Z,3.70
2023-02-01T16:20:45.325Z,4.15
2023-02-01T16:23:15.647Z,4.75
2023-02-01T16:25:44.342Z,3.90
2023-02-01T16:28:12.707Z,5.07
2023-02-01T16:30:41.344Z,4.63
2023-02-01T16:33:19.302Z,6.88
2023-02-01T16:35:48.607Z,5.78
2023-02-01T16:38:24.493Z,5.15
2023-02-01T16:40:53.267Z,5.47
2023-02-01T16:43:23.016Z,4.88
2023-02-01T16:45:54.027Z,5.03
2023-02-01T16:48:26.559Z,4.78
2023-02-01T16:50:57.508Z,5.50
2023-02-01T16:53:29.269Z,5.10
2023-02-01T16:55:59.629Z,4.78
2023-02-01T16:58:29.506Z,4.30
2023-02-01T17:00:57.787Z,4.53
2023-02-01T17:03:26.194Z,5.60
2023-02-01T17:05:58.487Z,3.92
2023-02-01T17:08:35.281Z,4.60
2023-02-01T17:11:04.024Z,7.75
2023-02-01T17:13:33.899Z,4.28
2023-02-01T17:16:04.877Z,4.60
2023-02-01T17:18:36.763Z,5.00
2023-02-01T17:21:07.005Z,4.03
2023-02-01T17:23:38.824Z,4.35
2023-02-01T17:26:11.400Z,4.88
2023-02-01T17:28:45.472Z,5.00
2023-02-01T17:31:16.747Z,4.30
2023-02-01T17:33:46.518Z,5.78
2023-02-01T17:36:17.572Z,4.22
2023-02-01T17:38:59.935Z,3.53
2023-02-01T17:41:34.129Z,2.95
2023-02-01T17:44:03.161Z,2.17
2023-02-01T17:46:33.394Z,1.25
2023-02-01T17:49:03.891Z,0.65
2023-02-01T17:51:32.102Z,0.77
2023-02-01T17:54:04.276Z,0.50
2023-02-01T17:56:33.766Z,0.70
2023-02-01T17:59:02.460Z,0.82
2023-02-01T18:01:31.157Z,0.60
2023-02-01T18:04:00.369Z,0.60
2023-02-01T18:06:33.839Z,0.70
2023-02-01T18:09:03.567Z,0.77
2023-02-01T18:11:34.102Z,0.77
2023-02-01T18:14:02.608Z,1.10
2023-02-01T18:16:33.932Z,0.68
2023-02-01T18:19:05.010Z,1.48
2023-02-01T18:21:35.793Z,1.35
2023-02-01T18:24:06.022Z,1.20
2023-02-01T18:26:34.652Z,1.30
2023-02-01T18:29:03.717Z,1.45
2023-02-01T18:31:33.760Z,1.05
2023-02-01T18:34:03.298Z,1.40
2023-02-01T18:36:31.562Z,1.50
2023-02-01T18:38:59.714Z,1.60
2023-02-01T18:41:30.082Z,1.25
2023-02-01T18:43:58.251Z,1.65
2023-02-01T18:46:27.110Z,1.15
2023-02-01T18:48:56.049Z,1.48
2023-02-01T18:51:24.806Z,1.40
2023-02-01T18:53:53.623Z,1.30
2023-02-01T18:56:22.076Z,0.75
2023-02-01T18:58:52.104Z,1.63
2023-02-01T19:01:23.540Z,1.95
2023-02-01T19:03:58.841Z,1.80
2023-02-01T19:06:41.415Z,2.35
2023-02-01T19:09:09.950Z,2.00
2023-02-01T19:11:38.247Z,1.80
2023-02-01T19:14:08.117Z,1.83
2023-02-01T19:16:39.963Z,1.88
2023-02-01T19:19:09.130Z,1.30
2023-02-01T19:21:38.005Z,2.38
2023-02-01T19:24:07.301Z,1.70
2023-02-01T19:26:35.530Z,2.17
2023-02-01T19:29:04.626Z,2.65
2023-02-01T19:31:34.674Z,2.70
2023-02-01T19:34:03.384Z,3.97
2023-02-01T19:36:31.669Z,3.80
2023-02-01T19:39:00.097Z,2.80
2023-02-01T19:41:28.662Z,2.05
2023-02-01T19:43:59.054Z,3.13
2023-02-01T19:46:27.671Z,2.83
2023-02-01T19:48:57.787Z,2.30
2023-02-01T19:51:26.209Z,2.53
2023-02-01T19:53:54.500Z,2.10
2023-02-01T19:56:22.672Z,1.65
2023-02-01T19:58:52.785Z,1.83
2023-02-01T20:01:20.436Z,2.65
2023-02-01T20:03:49.017Z,1.65
2023-02-01T20:06:19.029Z,2.50
2023-02-01T20:08:50.549Z,2.40
2023-02-01T20:11:19.099Z,3.10
2023-02-01T20:13:47.278Z,2.42
2023-02-01T20:16:15.568Z,3.13
2023-02-01T20:18:43.880Z,3.20
2023-02-01T20:21:12.871Z,3.17
2023-02-01T20:23:43.190Z,3.25
2023-02-01T20:26:13.461Z,2.63
2023-02-01T20:28:41.740Z,3.47
2023-02-01T20:31:11.584Z,2.40
2023-02-01T20:33:40.954Z,2.50
2023-02-01T20:36:10.218Z,2.33
2023-02-01T20:38:38.401Z,3.35
2023-02-01T20:41:10.102Z,2.92
2023-02-01T20:43:38.261Z,2.17
2023-02-01T20:46:09.043Z,2.17
2023-02-01T20:48:38.037Z,3.40
2023-02-01T20:51:07.619Z,2.72
2023-02-01T20:53:36.085Z,2.50
2023-02-01T20:56:04.263Z,2.50
2023-02-01T20:58:34.158Z,2.35
2023-02-01T21:01:02.658Z,2.20
2023-02-01T21:03:31.806Z,1.63
2023-02-01T21:06:01.517Z,2.30
2023-02-01T21:08:30.854Z,2.65
2023-02-01T21:11:01.311Z,2.88
2023-02-01T21:13:40.784Z,2.15
2023-02-01T21:16:12.917Z,2.13
2023-02-01T21:18:41.947Z,1.60
2023-02-01T21:21:11.894Z,1.50
2023-02-01T21:23:45.491Z,1.88
2023-02-01T21:26:13.899Z,2.08
2023-02-01T21:28:42.324Z,1.85
2023-02-01T21:31:12.587Z,2.70
2023-02-01T21:33:40.963Z,3.63
2023-02-01T21:36:10.172Z,2.00
2023-02-01T21:38:38.568Z,2.90
2023-02-01T21:41:20.745Z,2.90
2023-02-01T21:43:49.000Z,2.67
2023-02-01T21:46:19.305Z,2.60
2023-02-01T21:49:04.652Z,3.35
2023-02-01T21:51:35.442Z,2.30
2023-02-01T21:54:03.956Z,3.20
2023-02-01T21:56:32.932Z,3.25
2023-02-01T21:59:01.190Z,3.45
2023-02-01T22:01:31.343Z,3.72
2023-02-01T22:03:59.888Z,4.35
2023-02-01T22:06:29.767Z,3.33
2023-02-01T22:08:58.936Z,2.90
2023-02-01T22:11:27.391Z,2.53
2023-02-01T22:13:56.082Z,3.55
2023-02-01T22:16:25.230Z,3.75
2023-02-01T22:18:55.781Z,3.25
2023-02-01T22:21:24.986Z,4.25
2023-02-01T22:23:54.366Z,3.92
2023-02-01T22:26:23.835Z,2.72
2023-02-01T22:28:51.978Z,3.20
2023-02-01T22:31:21.317Z,2.60
2023-02-01T22:33:50.995Z,3.38
2023-02-01T22:36:21.087Z,2.30
2023-02-01T22:38:49.681Z,2.25
2023-02-01T22:41:18.456Z,2.45
2023-02-01T22:43:47.706Z,3.50
2023-02-01T22:46:18.933Z,2.95
2023-02-01T22:48:48.817Z,3.08
2023-02-01T22:51:20.995Z,3.08
2023-02-01T22:53:57.055Z,2.83
2023-02-01T22:56:26.936Z,2.50
2023-02-01T22:58:56.758Z,2.58
2023-02-01T23:01:25.639Z,2.42
2023-02-01T23:03:58.018Z,3.08
2023-02-01T23:06:28.663Z,2.60
2023-02-01T23:08:57.884Z,2.20
2023-02-01T23:11:27.553Z,2.60
2023-02-01T23:13:56.128Z,3.10
2023-02-01T23:16:25.000Z,2.22
2023-02-01T23:18:54.023Z,2.58
2023-02-01T23:21:25.440Z,2.83
2023-02-01T23:23:57.464Z,2.83
2023-02-01T23:26:27.977Z,2.22
2023-02-01T23:28:57.487Z,2.83
2023-02-01T23:31:27.698Z,1.70
2023-02-01T23:33:56.905Z,2.38
2023-02-01T23:36:27.286Z,3.03
2023-02-01T23:38:57.817Z,2.47
2023-02-01T23:41:27.572Z,2.97
2023-02-01T23:44:01.682Z,3.50
2023-02-01T23:46:33.099Z,3.47
2023-02-01T23:49:03.111Z,3.05
2023-02-01T23:51:31.920Z,2.40
2023-02-01T23:54:02.657Z,3.13
2023-02-01T23:56:33.581Z,3.53
2023-02-01T23:59:02.679Z,3.80
